Terminal Aerodrome Forecast
Issued by NWS

Home | Current Version | Previous Version | Text Only | Print | Product List | Glossary On
Versions: 1 2 3 4 5 6 7 8 9 10 11 12 13 14 15 16 17 18 19
000
FTUS45 KFGZ 041127
TAFGCN
TAF
KGCN 041127Z 0412/0512 VRB03KT P6SM FEW040 SCT070
     FM041600 VRB06KT P6SM -TSRA BKN040CB OVC060
      TEMPO 0419/0423 VRB15G25KT 5SM -TSRA OVC030CB=

USA.gov is the U.S. government's official web portal to all federal, state and local government web resources and services.